createdAt,value
2018-06-29T00:00:41.408Z,26.09
2018-06-29T00:01:41.375Z,26.12
2018-06-29T00:02:41.323Z,26.07
2018-06-29T00:03:41.281Z,26.13
2018-06-29T00:04:41.246Z,25.99
2018-06-29T00:05:41.197Z,26.10
2018-06-29T00:06:41.154Z,26.09
2018-06-29T00:07:41.112Z,26.05
2018-06-29T00:08:41.071Z,26.07
2018-06-29T00:09:41.033Z,26.07
2018-06-29T00:10:40.996Z,25.99
2018-06-29T00:11:40.944Z,26.05
2018-06-29T00:12:40.906Z,26.06
2018-06-29T00:13:40.860Z,25.94
2018-06-29T00:14:40.817Z,25.98
2018-06-29T00:15:40.776Z,26.02
2018-06-29T00:16:40.740Z,26.01
2018-06-29T00:17:40.693Z,26.01
2018-06-29T00:18:40.649Z,25.98
2018-06-29T00:19:40.608Z,26.02
2018-06-29T00:20:40.569Z,26.02
2018-06-29T00:21:40.524Z,26.01
2018-06-29T00:22:40.480Z,25.99
2018-06-29T00:23:40.438Z,26.02
2018-06-29T00:24:40.397Z,25.98
2018-06-29T00:25:40.355Z,25.99
2018-06-29T00:26:40.312Z,25.99
2018-06-29T00:27:40.273Z,25.95
2018-06-29T00:28:40.228Z,25.97
2018-06-29T00:29:40.236Z,25.99
2018-06-29T00:30:40.143Z,25.92
2018-06-29T00:31:40.105Z,25.92
2018-06-29T00:32:40.060Z,25.92
2018-06-29T00:33:40.023Z,25.94
2018-06-29T00:34:39.976Z,25.85
2018-06-29T00:35:39.932Z,25.85
2018-06-29T00:36:39.895Z,25.91
2018-06-29T00:37:39.851Z,25.87
2018-06-29T00:38:39.814Z,25.85
2018-06-29T00:39:39.764Z,25.99
2018-06-29T00:40:39.722Z,25.95
2018-06-29T00:41:39.680Z,25.87
2018-06-29T00:42:39.641Z,25.92
2018-06-29T00:43:39.595Z,25.91
2018-06-29T00:44:39.553Z,25.91
2018-06-29T00:45:39.512Z,25.87
2018-06-29T00:46:39.469Z,25.88
2018-06-29T00:47:39.426Z,25.90
2018-06-29T00:48:39.384Z,25.91
2018-06-29T00:49:39.342Z,25.85
2018-06-29T00:50:39.300Z,25.87
2018-06-29T00:51:39.257Z,25.87
2018-06-29T00:52:39.215Z,25.91
2018-06-29T00:53:39.173Z,25.90
2018-06-29T00:54:39.166Z,25.87
2018-06-29T00:55:39.090Z,25.88
2018-06-29T00:56:39.046Z,25.92
2018-06-29T00:57:39.004Z,25.82
2018-06-29T00:58:38.961Z,25.82
2018-06-29T00:59:38.919Z,25.88
2018-06-29T01:00:38.877Z,25.88
2018-06-29T01:01:38.855Z,25.88
2018-06-29T01:02:38.794Z,25.83
2018-06-29T01:03:38.750Z,25.88
2018-06-29T01:04:38.708Z,25.87
2018-06-29T01:05:38.666Z,25.85
2018-06-29T01:06:38.624Z,25.91
2018-06-29T01:07:38.581Z,25.83
2018-06-29T01:08:38.539Z,25.83
2018-06-29T01:09:38.503Z,25.87
2018-06-29T01:10:38.454Z,25.87
2018-06-29T01:11:38.412Z,25.85
2018-06-29T01:12:38.370Z,25.85
2018-06-29T01:13:38.327Z,25.83
2018-06-29T01:14:38.285Z,25.87
2018-06-29T01:15:38.243Z,25.82
2018-06-29T01:16:38.200Z,25.76
2018-06-29T01:17:38.160Z,25.83
2018-06-29T01:18:38.114Z,25.77
2018-06-29T01:19:38.073Z,25.82
2018-06-29T01:20:38.031Z,25.72
2018-06-29T01:21:37.992Z,25.85
2018-06-29T01:22:37.946Z,25.76
2018-06-29T01:23:37.904Z,25.83
2018-06-29T01:24:37.862Z,25.75
2018-06-29T01:25:37.819Z,25.83
2018-06-29T01:26:37.779Z,25.77
2018-06-29T01:27:37.734Z,25.73
2018-06-29T01:28:37.699Z,25.76
2018-06-29T01:29:37.650Z,25.72
2018-06-29T01:30:37.608Z,25.76
2018-06-29T01:31:37.565Z,25.75
2018-06-29T01:32:37.522Z,25.77
2018-06-29T01:33:37.481Z,25.76
2018-06-29T01:34:37.438Z,25.72
2018-06-29T01:35:37.396Z,25.80
2018-06-29T01:36:37.353Z,25.76
2018-06-29T01:37:37.312Z,25.76
2018-06-29T01:38:37.276Z,25.75
2018-06-29T01:39:37.226Z,25.80
2018-06-29T01:40:37.184Z,25.79
2018-06-29T01:41:37.142Z,25.73
2018-06-29T01:42:37.099Z,25.70
2018-06-29T01:43:37.057Z,25.80
2018-06-29T01:44:37.014Z,25.72
2018-06-29T01:45:36.972Z,25.69
2018-06-29T01:46:36.929Z,25.70
2018-06-29T01:47:36.887Z,25.70
2018-06-29T01:48:36.845Z,25.76
2018-06-29T01:49:36.802Z,25.72
2018-06-29T01:50:36.759Z,25.67
2018-06-29T01:51:36.717Z,25.72
2018-06-29T01:52:36.709Z,25.73
2018-06-29T01:53:36.633Z,25.62
2018-06-29T01:54:36.590Z,25.64
2018-06-29T01:55:36.548Z,25.76
2018-06-29T01:56:36.505Z,25.69
2018-06-29T01:57:36.463Z,25.69
2018-06-29T01:58:36.420Z,25.69
2018-06-29T01:59:36.378Z,25.64
2018-06-29T02:00:36.336Z,25.61
2018-06-29T02:01:36.294Z,25.62
2018-06-29T02:02:36.252Z,25.61
2018-06-29T02:03:36.209Z,25.64
2018-06-29T02:04:36.167Z,25.65
2018-06-29T02:05:36.124Z,25.61
2018-06-29T02:06:36.081Z,25.65
2018-06-29T02:07:36.040Z,25.61
2018-06-29T02:08:35.997Z,25.64
2018-06-29T02:09:35.954Z,25.61
2018-06-29T02:10:35.911Z,25.67
2018-06-29T02:11:35.869Z,25.67
2018-06-29T02:12:35.826Z,25.60
2018-06-29T02:13:35.784Z,25.64
2018-06-29T02:14:35.741Z,25.62
2018-06-29T02:15:35.702Z,25.62
2018-06-29T02:16:35.656Z,25.64
2018-06-29T02:17:35.614Z,25.64
2018-06-29T02:18:35.571Z,25.64
2018-06-29T02:19:35.531Z,25.61
2018-06-29T02:20:35.489Z,25.64
2018-06-29T02:21:35.445Z,25.64
2018-06-29T02:22:35.402Z,25.60
2018-06-29T02:23:35.359Z,25.62
2018-06-29T02:24:35.317Z,25.61
2018-06-29T02:25:35.324Z,25.60
2018-06-29T02:26:35.231Z,25.61
2018-06-29T02:27:35.218Z,25.60
2018-06-29T02:28:35.147Z,25.57
2018-06-29T02:29:35.105Z,25.58
2018-06-29T02:30:35.178Z,25.57
2018-06-29T02:31:35.030Z,25.60
2018-06-29T02:32:34.977Z,25.55
2018-06-29T02:33:34.936Z,25.58
2018-06-29T02:34:34.891Z,25.60
2018-06-29T02:35:34.853Z,25.58
2018-06-29T02:36:34.807Z,25.55
2018-06-29T02:37:34.771Z,25.55
2018-06-29T02:38:34.724Z,25.55
2018-06-29T02:39:34.683Z,25.54
2018-06-29T02:40:34.637Z,25.54
2018-06-29T02:41:34.595Z,25.55
2018-06-29T02:42:34.551Z,25.51
2018-06-29T02:43:34.511Z,25.58
2018-06-29T02:44:34.466Z,25.50
2018-06-29T02:45:34.424Z,25.50
2018-06-29T02:46:34.382Z,25.51
2018-06-29T02:47:34.339Z,25.60
2018-06-29T02:48:34.303Z,25.50
2018-06-29T02:49:34.254Z,25.57
2018-06-29T02:50:34.211Z,25.50
2018-06-29T02:51:34.169Z,25.55
2018-06-29T02:52:34.129Z,25.52
2018-06-29T02:53:34.084Z,25.51
2018-06-29T02:54:34.042Z,25.51
2018-06-29T02:55:33.998Z,25.55
2018-06-29T02:56:33.958Z,25.52
2018-06-29T02:57:33.913Z,25.54
2018-06-29T02:58:33.871Z,25.55
2018-06-29T02:59:33.828Z,25.52
2018-06-29T03:00:33.787Z,25.45
2018-06-29T03:01:33.744Z,25.54
2018-06-29T03:02:33.700Z,25.52
2018-06-29T03:03:33.658Z,25.57
2018-06-29T03:04:33.616Z,25.50
2018-06-29T03:05:33.575Z,25.50
2018-06-29T03:06:33.530Z,25.51
2018-06-29T03:07:33.487Z,25.50
2018-06-29T03:08:33.445Z,25.45
2018-06-29T03:09:33.403Z,25.57
2018-06-29T03:10:33.363Z,25.52
2018-06-29T03:11:33.317Z,25.50
2018-06-29T03:12:33.276Z,25.52
2018-06-29T03:13:33.232Z,25.42
2018-06-29T03:14:33.192Z,25.51
2018-06-29T03:15:33.147Z,25.54
2018-06-29T03:16:33.104Z,25.47
2018-06-29T03:17:33.062Z,25.47
2018-06-29T03:18:33.018Z,25.40
2018-06-29T03:19:32.976Z,25.50
2018-06-29T03:20:32.933Z,25.47
2018-06-29T03:21:32.891Z,25.47
2018-06-29T03:22:32.848Z,25.50
2018-06-29T03:23:32.805Z,25.45
2018-06-29T03:24:32.763Z,25.50
2018-06-29T03:25:32.721Z,25.50
2018-06-29T03:26:32.677Z,25.45
2018-06-29T03:27:32.635Z,25.50
2018-06-29T03:28:32.592Z,25.47
2018-06-29T03:29:32.550Z,25.50
2018-06-29T03:30:32.506Z,25.54
2018-06-29T03:31:32.464Z,25.58
2018-06-29T03:32:32.421Z,25.60
2018-06-29T03:33:32.379Z,25.39
2018-06-29T03:34:32.336Z,25.38
2018-06-29T03:35:32.294Z,25.43
2018-06-29T03:36:32.253Z,25.51
2018-06-29T03:37:32.209Z,25.43
2018-06-29T03:38:32.165Z,25.47
2018-06-29T03:39:32.123Z,25.47
2018-06-29T03:40:32.244Z,25.39
2018-06-29T03:41:32.038Z,25.45
2018-06-29T03:42:31.997Z,25.43
2018-06-29T03:43:31.952Z,25.43
2018-06-29T03:44:31.909Z,25.38
2018-06-29T03:45:31.867Z,25.42
2018-06-29T03:46:31.824Z,25.38
2018-06-29T03:47:31.783Z,25.47
2018-06-29T03:48:31.740Z,25.58
2018-06-29T03:49:31.763Z,25.38
2018-06-29T03:50:31.654Z,25.50
2018-06-29T03:51:31.610Z,25.50
2018-06-29T03:52:31.572Z,25.51
2018-06-29T03:53:31.527Z,25.45
2018-06-29T03:54:31.482Z,25.47
2018-06-29T03:55:31.440Z,25.54
2018-06-29T03:56:31.397Z,25.50
2018-06-29T03:57:31.355Z,25.51
2018-06-29T03:58:31.315Z,25.55
2018-06-29T03:59:31.269Z,25.50
2018-06-29T04:00:31.226Z,25.43
2018-06-29T04:01:31.183Z,25.47
2018-06-29T04:02:31.139Z,25.50
2018-06-29T04:03:31.100Z,25.43
2018-06-29T04:04:31.055Z,25.47
2018-06-29T04:05:31.013Z,25.43
2018-06-29T04:06:30.969Z,25.51
2018-06-29T04:07:30.927Z,25.51
2018-06-29T04:08:30.884Z,25.43
2018-06-29T04:09:30.841Z,25.47
2018-06-29T04:10:30.798Z,25.46
2018-06-29T04:11:30.756Z,25.47
2018-06-29T04:12:30.714Z,25.50
2018-06-29T04:13:30.671Z,25.50
2018-06-29T04:14:30.627Z,25.54
2018-06-29T04:15:30.585Z,25.50
2018-06-29T04:16:30.543Z,25.51
2018-06-29T04:17:30.501Z,25.50
2018-06-29T04:18:30.456Z,25.52
2018-06-29T04:19:30.414Z,25.47
2018-06-29T04:20:30.398Z,25.54
2018-06-29T04:21:30.329Z,25.45
2018-06-29T04:22:30.287Z,25.47
2018-06-29T04:23:30.243Z,25.57
2018-06-29T04:24:30.200Z,25.47
2018-06-29T04:25:30.158Z,25.46
2018-06-29T04:26:30.177Z,25.47
2018-06-29T04:27:30.072Z,25.50
2018-06-29T04:28:30.029Z,25.47
2018-06-29T04:29:29.986Z,25.50
2018-06-29T04:30:29.943Z,25.50
2018-06-29T04:31:29.901Z,25.50
2018-06-29T04:32:29.858Z,25.45
2018-06-29T04:33:29.815Z,25.50
2018-06-29T04:34:29.772Z,25.52
2018-06-29T04:35:29.730Z,25.50
2018-06-29T04:36:29.687Z,25.50
2018-06-29T04:37:29.648Z,25.52
2018-06-29T04:38:29.601Z,25.52
2018-06-29T04:39:29.558Z,25.58
2018-06-29T04:40:29.566Z,25.58
2018-06-29T04:41:29.473Z,25.60
2018-06-29T04:42:29.432Z,25.57
2018-06-29T04:43:29.389Z,25.61
2018-06-29T04:44:29.346Z,25.67
2018-06-29T04:45:29.304Z,25.73
2018-06-29T04:46:29.258Z,25.73
2018-06-29T04:47:29.215Z,25.73
2018-06-29T04:48:29.173Z,25.85
2018-06-29T04:49:29.131Z,25.88
2018-06-29T04:50:29.088Z,25.83
2018-06-29T04:51:29.044Z,25.88
2018-06-29T04:52:29.005Z,25.90
2018-06-29T04:53:28.960Z,25.99
2018-06-29T04:54:28.916Z,26.02
2018-06-29T04:55:28.874Z,26.06
2018-06-29T04:56:28.834Z,26.10
2018-06-29T04:57:28.789Z,26.09
2018-06-29T04:58:28.745Z,26.12
2018-06-29T04:59:28.703Z,26.17
2018-06-29T05:00:28.660Z,26.18
2018-06-29T05:01:28.634Z,26.18
2018-06-29T05:02:28.574Z,26.26
2018-06-29T05:03:28.532Z,26.36
2018-06-29T05:04:28.489Z,26.36
2018-06-29T05:05:28.447Z,26.32
2018-06-29T05:06:28.404Z,26.30
2018-06-29T05:07:28.361Z,26.44
2018-06-29T05:08:28.318Z,26.50
2018-06-29T05:09:28.276Z,26.40
2018-06-29T05:10:28.233Z,26.48
2018-06-29T05:11:28.190Z,26.55
2018-06-29T05:12:28.148Z,26.54
2018-06-29T05:13:28.105Z,26.63
2018-06-29T05:14:28.061Z,26.62
2018-06-29T05:15:28.064Z,26.62
2018-06-29T05:16:27.977Z,26.72
2018-06-29T05:17:27.934Z,26.80
2018-06-29T05:18:27.891Z,26.80
2018-06-29T05:19:27.851Z,26.80
2018-06-29T05:20:27.806Z,26.84
2018-06-29T05:21:27.764Z,26.89
2018-06-29T05:22:27.720Z,26.91
2018-06-29T05:23:27.678Z,27.00
2018-06-29T05:24:27.636Z,27.00
2018-06-29T05:25:27.593Z,27.03
2018-06-29T05:26:27.549Z,26.92
2018-06-29T05:27:27.510Z,27.07
2018-06-29T05:28:27.501Z,27.12
2018-06-29T05:29:27.422Z,27.21
2018-06-29T05:30:27.379Z,27.13
2018-06-29T05:31:27.337Z,27.19
2018-06-29T05:32:27.295Z,27.22
2018-06-29T05:33:27.252Z,27.31
2018-06-29T05:34:27.209Z,27.31
2018-06-29T05:35:27.166Z,27.34
2018-06-29T05:36:27.129Z,27.36
2018-06-29T05:37:27.082Z,27.36
2018-06-29T05:38:27.039Z,27.43
2018-06-29T05:39:26.998Z,27.49
2018-06-29T05:40:26.954Z,27.55
2018-06-29T05:41:26.991Z,27.54
2018-06-29T05:42:26.868Z,27.51
2018-06-29T05:43:26.876Z,27.62
2018-06-29T05:44:26.784Z,27.63
2018-06-29T05:45:26.742Z,27.70
2018-06-29T05:46:26.699Z,27.70
2018-06-29T05:47:26.657Z,27.81
2018-06-29T05:48:26.614Z,27.74
2018-06-29T05:49:26.573Z,27.79
2018-06-29T05:50:26.529Z,27.78
2018-06-29T05:51:26.487Z,27.88
2018-06-29T05:52:26.445Z,27.99
2018-06-29T05:53:26.405Z,27.94
2018-06-29T05:54:26.360Z,27.97
2018-06-29T05:55:26.317Z,28.04
2018-06-29T05:56:26.275Z,28.04
2018-06-29T05:57:26.289Z,28.07
2018-06-29T05:58:26.190Z,28.07
2018-06-29T05:59:26.148Z,28.15
2018-06-29T06:00:26.107Z,28.21
2018-06-29T06:01:26.064Z,28.17
2018-06-29T06:02:26.021Z,28.30
2018-06-29T06:03:25.979Z,28.34
2018-06-29T06:04:25.937Z,28.30
2018-06-29T06:05:25.898Z,28.29
2018-06-29T06:06:25.852Z,28.36
2018-06-29T06:07:25.812Z,28.36
2018-06-29T06:08:25.770Z,28.41
2018-06-29T06:09:25.727Z,28.40
2018-06-29T06:10:25.683Z,28.56
2018-06-29T06:11:25.641Z,28.54
2018-06-29T06:12:25.599Z,28.49
2018-06-29T06:13:25.580Z,28.58
2018-06-29T06:14:25.514Z,28.52
2018-06-29T06:15:25.473Z,28.64
2018-06-29T06:16:25.431Z,28.68
2018-06-29T06:17:25.389Z,28.68
2018-06-29T06:18:25.346Z,28.76
2018-06-29T06:19:25.304Z,28.77
2018-06-29T06:20:25.262Z,28.81
2018-06-29T06:21:25.224Z,28.89
2018-06-29T06:22:25.178Z,28.86
2018-06-29T06:23:25.137Z,28.90
2018-06-29T06:24:25.094Z,28.96
2018-06-29T06:25:25.053Z,28.95
2018-06-29T06:26:25.017Z,28.98
2018-06-29T06:27:24.969Z,28.93
2018-06-29T06:28:24.927Z,29.02
2018-06-29T06:29:24.887Z,29.02
2018-06-29T06:30:24.846Z,29.12
2018-06-29T06:31:24.803Z,29.18
2018-06-29T06:32:24.759Z,29.14
2018-06-29T06:33:24.718Z,29.18
2018-06-29T06:34:24.679Z,29.26
2018-06-29T06:35:24.634Z,29.26
2018-06-29T06:36:24.592Z,29.31
2018-06-29T06:37:24.550Z,29.31
2018-06-29T06:38:24.508Z,29.43
2018-06-29T06:39:24.466Z,29.42
2018-06-29T06:40:24.430Z,29.43
2018-06-29T06:41:24.383Z,29.52
2018-06-29T06:42:24.341Z,29.55
2018-06-29T06:43:24.299Z,29.64
2018-06-29T06:44:24.261Z,29.65
2018-06-29T06:45:24.267Z,29.61
2018-06-29T06:46:24.174Z,29.70
2018-06-29T06:47:24.132Z,29.70
2018-06-29T06:48:24.091Z,29.67
2018-06-29T06:49:24.050Z,29.73
2018-06-29T06:50:24.010Z,29.76
2018-06-29T06:51:23.966Z,29.76
2018-06-29T06:52:23.925Z,29.78
2018-06-29T06:53:23.885Z,29.68
2018-06-29T06:54:23.841Z,29.70
2018-06-29T06:55:23.800Z,29.76
2018-06-29T06:56:23.758Z,29.76
2018-06-29T06:57:23.716Z,29.86
2018-06-29T06:58:23.674Z,29.80
2018-06-29T06:59:23.659Z,29.78
2018-06-29T07:00:23.592Z,29.83
2018-06-29T07:01:23.550Z,29.85
2018-06-29T07:02:23.509Z,29.86
2018-06-29T07:03:23.468Z,29.89
2018-06-29T07:04:23.426Z,29.92
2018-06-29T07:05:23.384Z,29.98
2018-06-29T07:06:23.341Z,29.98
2018-06-29T07:07:23.303Z,29.98
2018-06-29T07:08:23.259Z,30.07
2018-06-29T07:09:23.271Z,30.04
2018-06-29T07:10:23.176Z,30.10
2018-06-29T07:11:23.139Z,30.13
2018-06-29T07:12:23.107Z,30.05
2018-06-29T07:13:23.053Z,30.17
2018-06-29T07:14:23.011Z,30.15
2018-06-29T07:15:22.969Z,30.16
2018-06-29T07:16:22.928Z,30.15
2018-06-29T07:17:22.887Z,30.22
2018-06-29T07:18:22.943Z,30.19
2018-06-29T07:19:22.804Z,30.38
2018-06-29T07:20:22.763Z,30.39
2018-06-29T07:21:22.725Z,30.49
2018-06-29T07:22:22.680Z,30.46
2018-06-29T07:23:22.639Z,30.42
2018-06-29T07:24:22.611Z,30.62
2018-06-29T07:25:22.557Z,30.62
2018-06-29T07:26:22.515Z,30.64
2018-06-29T07:27:22.474Z,30.64
2018-06-29T07:28:22.433Z,30.73
2018-06-29T07:29:22.392Z,30.82
2018-06-29T07:30:22.350Z,30.88
2018-06-29T07:31:22.308Z,30.97
2018-06-29T07:32:22.268Z,31.01
2018-06-29T07:33:22.227Z,31.09
2018-06-29T07:34:22.185Z,31.16
2018-06-29T07:35:22.144Z,31.20
2018-06-29T07:36:22.103Z,31.20
2018-06-29T07:37:22.062Z,31.26
2018-06-29T07:38:22.020Z,31.34
2018-06-29T07:39:21.978Z,31.57
2018-06-29T07:40:21.938Z,31.53
2018-06-29T07:41:21.897Z,31.73
2018-06-29T07:42:21.855Z,31.76
2018-06-29T07:43:21.814Z,31.75
2018-06-29T07:44:21.773Z,31.86
2018-06-29T07:45:21.735Z,31.96
2018-06-29T07:46:21.691Z,32.00
2018-06-29T07:47:21.650Z,32.19
2018-06-29T07:48:21.608Z,32.30
2018-06-29T07:49:21.569Z,32.35
2018-06-29T07:50:21.526Z,32.51
2018-06-29T07:51:21.486Z,32.60
2018-06-29T07:52:21.445Z,32.75
2018-06-29T07:53:21.407Z,32.74
2018-06-29T07:54:21.361Z,32.85
2018-06-29T07:55:21.325Z,32.92
2018-06-29T07:56:21.385Z,33.03
2018-06-29T07:57:21.248Z,33.04
2018-06-29T07:58:21.316Z,33.23
2018-06-29T07:59:21.165Z,33.31
2018-06-29T08:00:21.117Z,33.42
2018-06-29T08:01:21.076Z,33.57
2018-06-29T08:02:21.034Z,33.73
2018-06-29T08:03:20.993Z,33.81
2018-06-29T08:04:20.955Z,33.93
2018-06-29T08:05:20.912Z,34.09
2018-06-29T08:06:20.871Z,34.16
2018-06-29T08:07:20.834Z,34.28
2018-06-29T08:08:20.790Z,34.40
2018-06-29T08:09:20.749Z,34.46
2018-06-29T08:10:20.708Z,34.49
2018-06-29T08:11:20.666Z,34.66
2018-06-29T08:12:20.626Z,34.80
2018-06-29T08:13:20.586Z,34.89
2018-06-29T08:14:20.544Z,35.02
2018-06-29T08:15:20.504Z,35.10
2018-06-29T08:16:20.466Z,35.19
2018-06-29T08:17:20.423Z,35.19
2018-06-29T08:18:20.381Z,35.28
2018-06-29T08:19:20.341Z,35.25
2018-06-29T08:20:20.301Z,35.29
2018-06-29T08:21:20.260Z,35.38
2018-06-29T08:22:20.219Z,35.40
2018-06-29T08:23:20.179Z,35.44
2018-06-29T08:24:20.142Z,35.53
2018-06-29T08:25:20.100Z,35.44
2018-06-29T08:26:20.058Z,35.38
2018-06-29T08:27:20.018Z,35.45
2018-06-29T08:28:19.978Z,35.56
2018-06-29T08:29:19.937Z,35.62
2018-06-29T08:30:19.898Z,35.71
2018-06-29T08:31:19.857Z,35.77
2018-06-29T08:32:19.816Z,35.81
2018-06-29T08:33:19.776Z,35.94
2018-06-29T08:34:19.735Z,35.97
2018-06-29T08:35:19.695Z,36.05
2018-06-29T08:36:19.655Z,36.20
2018-06-29T08:37:19.619Z,36.29
2018-06-29T08:38:19.575Z,36.34
2018-06-29T08:39:19.537Z,36.31
2018-06-29T08:40:19.498Z,36.29
2018-06-29T08:41:19.455Z,36.35
2018-06-29T08:42:19.414Z,36.41
2018-06-29T08:43:19.376Z,36.47
2018-06-29T08:44:19.436Z,36.53
2018-06-29T08:45:19.295Z,36.59
2018-06-29T08:46:19.257Z,36.68
2018-06-29T08:47:19.219Z,36.60
2018-06-29T08:48:19.176Z,36.68
2018-06-29T08:49:19.136Z,36.69
2018-06-29T08:50:19.096Z,36.76
2018-06-29T08:51:19.058Z,36.62
2018-06-29T08:52:19.099Z,36.68
2018-06-29T08:53:18.978Z,36.56
2018-06-29T08:54:18.938Z,36.54
2018-06-29T08:55:18.899Z,36.51
2018-06-29T08:56:18.859Z,36.41
2018-06-29T08:57:18.820Z,36.39
2018-06-29T08:58:18.781Z,36.38
2018-06-29T08:59:18.741Z,36.28
2018-06-29T09:00:18.703Z,36.07
2018-06-29T09:01:18.662Z,35.94
2018-06-29T09:02:18.623Z,35.85
2018-06-29T09:03:18.585Z,35.75
2018-06-29T09:04:18.545Z,35.72
2018-06-29T09:05:18.506Z,35.66
2018-06-29T09:06:18.467Z,35.66
2018-06-29T09:07:18.432Z,35.65
2018-06-29T09:08:18.390Z,35.65
2018-06-29T09:09:18.350Z,35.53
2018-06-29T09:10:18.311Z,35.58
2018-06-29T09:11:18.272Z,35.55
2018-06-29T09:12:18.233Z,35.62
2018-06-29T09:13:18.198Z,35.59
2018-06-29T09:14:18.160Z,35.55
2018-06-29T09:15:18.117Z,35.52
2018-06-29T09:16:18.078Z,35.47
2018-06-29T09:17:18.041Z,35.34
2018-06-29T09:18:18.000Z,35.26
2018-06-29T09:19:17.962Z,35.25
2018-06-29T09:20:17.923Z,35.25
2018-06-29T09:21:17.885Z,35.02
2018-06-29T09:22:17.850Z,35.00
2018-06-29T09:23:17.808Z,34.75
2018-06-29T09:24:17.821Z,34.34
2018-06-29T09:25:17.731Z,34.05
2018-06-29T09:26:17.691Z,33.82
2018-06-29T09:27:17.653Z,33.51
2018-06-29T09:28:17.621Z,33.22
2018-06-29T09:29:17.577Z,33.07
2018-06-29T09:30:17.537Z,32.94
2018-06-29T09:31:17.501Z,32.89
2018-06-29T09:32:17.460Z,32.93
2018-06-29T09:33:17.424Z,32.93
2018-06-29T09:34:17.382Z,32.88
2018-06-29T09:35:17.347Z,32.81
2018-06-29T09:36:17.337Z,32.69
2018-06-29T09:37:17.268Z,32.70
2018-06-29T09:38:17.229Z,32.50
2018-06-29T09:39:17.189Z,32.35
2018-06-29T09:40:17.150Z,32.29
2018-06-29T09:41:17.114Z,32.15
2018-06-29T09:42:17.073Z,31.95
2018-06-29T09:43:17.035Z,31.80
2018-06-29T09:44:16.996Z,31.70
2018-06-29T09:45:16.957Z,31.46
2018-06-29T09:46:16.918Z,31.28
2018-06-29T09:47:16.913Z,31.21
2018-06-29T09:48:16.842Z,31.06
2018-06-29T09:49:16.803Z,30.89
2018-06-29T09:50:16.767Z,30.73
2018-06-29T09:51:16.725Z,30.67
2018-06-29T09:52:16.685Z,30.61
2018-06-29T09:53:16.649Z,30.43
2018-06-29T09:54:16.608Z,30.54
2018-06-29T09:55:16.569Z,30.35
2018-06-29T09:56:16.534Z,30.27
2018-06-29T09:57:16.492Z,30.17
2018-06-29T09:58:16.452Z,30.08
2018-06-29T09:59:16.413Z,30.05
2018-06-29T10:00:16.378Z,30.00
2018-06-29T10:01:16.375Z,29.94
2018-06-29T10:02:16.295Z,29.89
2018-06-29T10:03:16.257Z,29.85
2018-06-29T10:04:16.218Z,29.87
2018-06-29T10:05:16.178Z,29.78
2018-06-29T10:06:16.138Z,29.68
2018-06-29T10:07:16.100Z,29.65
2018-06-29T10:08:16.060Z,29.58
2018-06-29T10:09:16.021Z,29.65
2018-06-29T10:10:15.981Z,29.65
2018-06-29T10:11:15.940Z,29.61
2018-06-29T10:12:15.903Z,29.58
2018-06-29T10:13:15.863Z,29.53
2018-06-29T10:14:15.847Z,29.48
2018-06-29T10:15:15.784Z,29.39
2018-06-29T10:16:15.744Z,29.37
2018-06-29T10:17:15.756Z,29.30
2018-06-29T10:18:15.665Z,29.37
2018-06-29T10:19:15.627Z,29.31
2018-06-29T10:20:15.626Z,29.24
2018-06-29T10:21:15.546Z,29.23
2018-06-29T10:22:15.591Z,29.23
2018-06-29T10:23:15.467Z,29.14
2018-06-29T10:24:15.475Z,29.19
2018-06-29T10:25:15.426Z,29.19
2018-06-29T10:26:15.347Z,29.14
2018-06-29T10:27:15.308Z,29.14
2018-06-29T10:28:15.379Z,29.15
2018-06-29T10:29:15.229Z,29.19
2018-06-29T10:30:15.188Z,29.12
2018-06-29T10:31:15.149Z,29.19
2018-06-29T10:32:15.109Z,29.12
2018-06-29T10:33:15.070Z,29.09
2018-06-29T10:34:15.030Z,29.16
2018-06-29T10:35:14.994Z,29.16
2018-06-29T10:36:14.951Z,29.05
2018-06-29T10:37:14.911Z,29.08
2018-06-29T10:38:14.876Z,29.12
2018-06-29T10:39:14.831Z,29.09
2018-06-29T10:40:14.791Z,29.08
2018-06-29T10:41:14.751Z,29.09
2018-06-29T10:42:14.713Z,29.12
2018-06-29T10:43:14.672Z,29.06
2018-06-29T10:44:14.632Z,29.04
2018-06-29T10:45:14.593Z,29.11
2018-06-29T10:46:14.552Z,29.02
2018-06-29T10:47:14.512Z,28.98
2018-06-29T10:48:14.473Z,29.06
2018-06-29T10:49:14.433Z,28.93
2018-06-29T10:50:14.393Z,28.93
2018-06-29T10:51:14.353Z,29.02
2018-06-29T10:52:14.317Z,28.92
2018-06-29T10:53:14.274Z,29.06
2018-06-29T10:54:14.238Z,28.98
2018-06-29T10:55:14.194Z,29.00
2018-06-29T10:56:14.154Z,28.93
2018-06-29T10:57:14.115Z,28.96
2018-06-29T10:58:14.074Z,29.00
2018-06-29T10:59:14.034Z,28.98
2018-06-29T11:00:13.993Z,28.92
2018-06-29T11:01:13.957Z,28.93
2018-06-29T11:02:13.915Z,28.92
2018-06-29T11:03:13.874Z,28.93
2018-06-29T11:04:13.835Z,28.95
2018-06-29T11:05:13.807Z,28.93
2018-06-29T11:06:13.755Z,28.90
2018-06-29T11:07:13.715Z,28.93
2018-06-29T11:08:13.676Z,28.89
2018-06-29T11:09:13.636Z,28.96
2018-06-29T11:10:13.599Z,28.76
2018-06-29T11:11:13.556Z,28.81
2018-06-29T11:12:13.516Z,28.88
2018-06-29T11:13:13.476Z,28.81
2018-06-29T11:14:13.435Z,28.76
2018-06-29T11:15:13.399Z,28.89
2018-06-29T11:16:13.356Z,28.86
2018-06-29T11:17:13.318Z,28.83
2018-06-29T11:18:13.276Z,28.86
2018-06-29T11:19:13.236Z,28.88
2018-06-29T11:20:13.197Z,28.85
2018-06-29T11:21:13.157Z,28.86
2018-06-29T11:22:13.116Z,28.88
2018-06-29T11:23:13.077Z,28.83
2018-06-29T11:24:13.037Z,28.86
2018-06-29T11:25:13.000Z,28.86
2018-06-29T11:26:12.956Z,28.81
2018-06-29T11:27:12.917Z,28.83
2018-06-29T11:28:12.877Z,28.85
2018-06-29T11:29:12.837Z,28.77
2018-06-29T11:30:12.803Z,28.86
2018-06-29T11:31:12.757Z,28.88
2018-06-29T11:32:12.717Z,28.89
2018-06-29T11:33:12.677Z,28.85
2018-06-29T11:34:12.641Z,28.76
2018-06-29T11:35:12.598Z,28.89
2018-06-29T11:36:12.557Z,28.81
2018-06-29T11:37:12.519Z,28.78
2018-06-29T11:38:12.476Z,28.90
2018-06-29T11:39:12.436Z,28.89
2018-06-29T11:40:12.397Z,28.88
2018-06-29T11:41:12.358Z,28.89
2018-06-29T11:42:12.316Z,28.83
2018-06-29T11:43:12.283Z,28.88
2018-06-29T11:44:12.304Z,28.83
2018-06-29T11:45:12.197Z,28.88
2018-06-29T11:46:12.165Z,28.81
2018-06-29T11:47:12.116Z,28.80
2018-06-29T11:48:12.077Z,28.70
2018-06-29T11:49:12.039Z,28.73
2018-06-29T11:50:11.996Z,28.67
2018-06-29T11:51:11.962Z,28.71
2018-06-29T11:52:11.916Z,28.78
2018-06-29T11:53:11.876Z,28.73
2018-06-29T11:54:11.835Z,28.71
2018-06-29T11:55:11.796Z,28.67
2018-06-29T11:56:11.756Z,28.68
2018-06-29T11:57:11.716Z,28.59
2018-06-29T11:58:11.675Z,28.61
2018-06-29T11:59:11.635Z,28.62
2018-06-29T12:00:11.596Z,28.64
2018-06-29T12:01:11.558Z,28.59
2018-06-29T12:02:11.565Z,28.66
2018-06-29T12:03:11.475Z,28.67
2018-06-29T12:04:11.436Z,28.68
2018-06-29T12:05:11.395Z,28.66
2018-06-29T12:06:11.355Z,28.66
2018-06-29T12:07:11.371Z,28.70
2018-06-29T12:08:11.277Z,28.62
2018-06-29T12:09:11.234Z,28.66
2018-06-29T12:10:11.196Z,28.62
2018-06-29T12:11:11.155Z,28.61
2018-06-29T12:12:11.115Z,28.61
2018-06-29T12:13:11.075Z,28.61
2018-06-29T12:14:11.033Z,28.59
2018-06-29T12:15:10.994Z,28.64
2018-06-29T12:16:10.954Z,28.61
2018-06-29T12:17:10.917Z,28.62
2018-06-29T12:18:10.873Z,28.59
2018-06-29T12:19:10.840Z,28.55
2018-06-29T12:20:10.793Z,28.52
2018-06-29T12:21:10.753Z,28.56
2018-06-29T12:22:10.712Z,28.54
2018-06-29T12:23:10.677Z,28.52
2018-06-29T12:24:10.632Z,28.51
2018-06-29T12:25:10.592Z,28.55
2018-06-29T12:26:10.551Z,28.44
2018-06-29T12:27:10.512Z,28.55
2018-06-29T12:28:10.472Z,28.41
2018-06-29T12:29:10.436Z,28.39
2018-06-29T12:30:10.391Z,28.39
2018-06-29T12:31:10.351Z,28.40
2018-06-29T12:32:10.311Z,28.37
2018-06-29T12:33:10.271Z,28.33
2018-06-29T12:34:10.230Z,28.39
2018-06-29T12:35:10.191Z,28.27
2018-06-29T12:36:10.151Z,28.40
2018-06-29T12:37:10.110Z,28.27
2018-06-29T12:38:10.070Z,28.44
2018-06-29T12:39:10.035Z,28.39
2018-06-29T12:40:09.990Z,28.33
2018-06-29T12:41:09.949Z,28.30
2018-06-29T12:42:09.909Z,28.30
2018-06-29T12:43:09.869Z,28.25
2018-06-29T12:44:09.831Z,28.37
2018-06-29T12:45:09.789Z,28.29
2018-06-29T12:46:09.798Z,28.29
2018-06-29T12:47:09.707Z,28.34
2018-06-29T12:48:09.668Z,28.30
2018-06-29T12:49:09.628Z,28.31
2018-06-29T12:50:09.587Z,28.31
2018-06-29T12:51:09.547Z,28.31
2018-06-29T12:52:09.507Z,28.21